Port Lions, AK (99550)

11:59 PM AKST on December 28, 2014 (GMT -0900)
Kodiak | Change Station
CLOSE
Current Station
Airport
Location: Kodiak,
Elevation: 112 ft
Nearby Weather Stations

Elev 112 ft 57.75 °N, 152.49 °W | Updated 6 minutes ago

Rain
Rain Mist
43 °F
Feels Like 33 °F
N
28
Wind Variable Wind from East
Gusts 33 mph

Today
High -- | Low -- °F
--% Chance of Precip.
Yesterday
High -- | Low -- °F
Precip. -- in
9:57 AM 4:31 PM
First Quarter, 57% visible
Pressure 29.99 in
Visibility 4.0 miles
Clouds Scattered Clouds 300 ft
Overcast 800 ft
Windchill 33 °F
Dew Point 43 °F
Humidity 100%
Rainfall 3.18 in
Snow Depth Not available.
UV 0 out of 12
Pollen Not available.
Air Quality Not available.
Flu Activity Not available.
METAR PADQ 290853Z 10024G29KT 4SM RA BR SCT003 OVC008 06/06 A2999 RMK AO2 PK WND 11032/0805 SLP154 P0016 60054 T00610061 400610050 58018

More Conditions Fewer Conditions

Pressure 29.99 in
Visibility 4.0 miles
Clouds Scattered Clouds 300 ft
Overcast 800 ft
Windchill 33 °F
Dew Point 43 °F
Humidity 100%
Rainfall 3.18 in
Snow Depth Not available.
UV 0 out of 12
Pollen Not available.
Air Quality Not available.
Flu Activity Not available.
METAR PADQ 290853Z 10024G29KT 4SM RA BR SCT003 OVC008 06/06 A2999 RMK AO2 PK WND 11032/0805 SLP154 P0016 60054 T00610061 400610050 58018

More Conditions Fewer Conditions

10-Day Weather Forecast

Almanac

Astronomy

Dec. 28, 2014 Rise Set
Actual Time
Civil Twilight
Nautical Twilight
Astronomical Twilight
Moon
Length of Visible Light
Length of Day
Tomorrow will be .
, % of the Moon is Illuminated

Today's Extremes

State Highs State Lows

Community

WunderPhotos

Upload Photos

1,781,558 photos uploaded!

WunderBlogs® & News

Nearby

Air Quality

  Air Quality AQ Index Pollutant
Not available.

Snow Depth

Station Depth Elevation

Earthquake Activity

City Distance Mag. Time & Date
Minimum magnitude displayed is 2.5.

Coastal Water Temperatures

Place Temperature

Nearby Weather Stations